Time;durP1;ratioP1;P1;durP2;ratioP2;P2;SDS_P1;SDS_P2;PMS_P1;PMS_P2;Temp;Humidity;BMP_temperature;BMP_pressure;BME280_temperature;BME280_humidity;BME280_pressure;Samples;Min_cycle;Max_cycle;Signal;HPM_P1;HPM_P2
2021/11/15 00:00:55;;;;;;;108.75;35.13;;;;;;;-1.39;100.00;102214.23;1582835;89;21043;-84
2021/11/15 00:03:24;;;;;;;108.65;33.92;;;;;;;-1.37;100.00;102213.63;1583085;89;20978;-84
2021/11/15 00:05:50;;;;;;;103.47;33.98;;;;;;;-1.41;100.00;102217.53;1582866;89;21022;-84
2021/11/15 00:08:16;;;;;;;113.03;36.40;;;;;;;-1.42;100.00;102213.20;1582958;89;21739;-84
2021/11/15 00:10:42;;;;;;;102.45;34.05;;;;;;;-1.42;100.00;102206.09;1582673;89;21603;-84
2021/11/15 00:13:09;;;;;;;100.75;34.18;;;;;;;-1.46;100.00;102207.36;1583238;89;21030;-83
2021/11/15 00:15:36;;;;;;;104.40;33.60;;;;;;;-1.50;100.00;102210.41;1583044;89;21133;-84
2021/11/15 00:18:03;;;;;;;98.33;33.88;;;;;;;-1.51;100.00;102206.95;1582951;89;21628;-83
2021/11/15 00:20:29;;;;;;;115.47;34.67;;;;;;;-1.52;100.00;102211.89;1582677;89;21176;-84
2021/11/15 00:22:55;;;;;;;104.97;35.17;;;;;;;-1.56;100.00;102211.81;1582617;89;21045;-84
2021/11/15 00:25:21;;;;;;;106.55;34.40;;;;;;;-1.55;100.00;102216.64;1582998;89;21632;-83
2021/11/15 00:27:47;;;;;;;104.07;34.95;;;;;;;-1.56;100.00;102218.42;1582976;89;21542;-83
2021/11/15 00:30:15;;;;;;;107.83;35.28;;;;;;;-1.60;100.00;102209.11;1582938;89;21066;-84
2021/11/15 00:32:41;;;;;;;103.90;33.73;;;;;;;-1.67;100.00;102203.56;1583030;89;21083;-83
2021/11/15 00:35:10;;;;;;;100.70;34.03;;;;;;;-1.70;100.00;102199.05;1582808;89;21557;-84
2021/11/15 00:37:36;;;;;;;89.83;30.68;;;;;;;-1.70;100.00;102191.12;1582891;89;21081;-83
2021/11/15 00:40:06;;;;;;;102.15;32.03;;;;;;;-1.69;100.00;102205.98;1587981;88;21082;-84
2021/11/15 00:42:32;;;;;;;104.53;32.90;;;;;;;-1.67;100.00;102204.88;1593714;89;21075;-83
2021/11/15 00:44:59;;;;;;;100.72;34.15;;;;;;;-1.65;100.00;102208.23;1593865;89;21174;-83
2021/11/15 00:47:24;;;;;;;95.30;33.25;;;;;;;-1.64;100.00;102206.41;1593747;89;21006;-83
2021/11/15 00:49:50;;;;;;;97.22;31.95;;;;;;;-1.65;100.00;102200.30;1593702;89;21007;-83
2021/11/15 00:52:17;;;;;;;89.83;30.60;;;;;;;-1.61;100.00;102206.96;1593670;89;21055;-83
2021/11/15 00:54:43;;;;;;;102.00;32.98;;;;;;;-1.61;100.00;102208.77;1594061;89;21378;-83
2021/11/15 00:57:09;;;;;;;95.62;31.68;;;;;;;-1.61;100.00;102196.88;1593906;89;21177;-83
2021/11/15 00:59:35;;;;;;;97.12;32.25;;;;;;;-1.70;100.00;102197.72;1593818;89;21019;-83
2021/11/15 01:02:03;;;;;;;99.40;31.87;;;;;;;-1.72;100.00;102195.20;1593764;89;21463;-84
2021/11/15 01:04:29;;;;;;;98.92;33.15;;;;;;;-1.70;100.00;102185.83;1593738;89;21024;-83
2021/11/15 01:06:56;;;;;;;114.20;38.23;;;;;;;-1.73;100.00;102194.04;1593803;89;21094;-83
2021/11/15 01:09:24;;;;;;;108.20;35.52;;;;;;;-1.75;100.00;102188.88;1593758;89;21147;-84
2021/11/15 01:11:52;;;;;;;109.80;35.43;;;;;;;-1.75;100.00;102185.41;1593766;89;20979;-83
2021/11/15 01:14:19;;;;;;;132.82;37.53;;;;;;;-1.82;100.00;102183.81;1593983;89;21603;-83
2021/11/15 01:16:46;;;;;;;121.33;39.42;;;;;;;-1.81;100.00;102191.25;1593726;89;21035;-83
2021/11/15 01:19:14;;;;;;;118.87;37.93;;;;;;;-1.79;100.00;102182.22;1593813;89;21027;-83
2021/11/15 01:21:41;;;;;;;119.30;37.13;;;;;;;-1.78;100.00;102181.72;1593764;89;21534;-83
2021/11/15 01:24:08;;;;;;;134.65;40.55;;;;;;;-1.83;100.00;102182.95;1593844;89;21527;-83
2021/11/15 01:26:35;;;;;;;142.90;46.02;;;;;;;-1.81;100.00;102179.36;1593885;89;21118;-83
2021/11/15 01:29:00;;;;;;;156.75;47.73;;;;;;;-1.79;100.00;102187.96;1593801;89;21078;-83
2021/11/15 01:31:26;;;;;;;163.40;50.88;;;;;;;-1.79;100.00;102189.28;1593796;89;20912;-83
2021/11/15 01:33:52;;;;;;;167.65;51.80;;;;;;;-1.80;100.00;102181.02;1593622;89;21135;-83
2021/11/15 01:36:18;;;;;;;188.93;59.67;;;;;;;-1.82;100.00;102171.92;1593593;89;20979;-83
2021/11/15 01:38:45;;;;;;;203.50;61.90;;;;;;;-1.83;100.00;102174.20;1593659;89;20980;-83
2021/11/15 01:41:11;;;;;;;179.32;53.92;;;;;;;-1.84;100.00;102177.33;1594258;89;21074;-83
2021/11/15 01:43:37;;;;;;;147.10;44.80;;;;;;;-1.87;100.00;102177.61;1597156;88;21099;-83
2021/11/15 01:46:04;;;;;;;168.82;51.02;;;;;;;-1.89;100.00;102184.83;1599232;89;21138;-83
2021/11/15 01:48:30;;;;;;;173.57;52.55;;;;;;;-1.93;100.00;102190.55;1599108;88;21061;-83
2021/11/15 01:50:56;;;;;;;162.15;49.83;;;;;;;-1.95;100.00;102185.39;1598921;89;21678;-83
2021/11/15 01:53:22;;;;;;;146.32;46.10;;;;;;;-1.96;100.00;102190.34;1598047;89;21693;-83
2021/11/15 01:55:49;;;;;;;141.97;43.50;;;;;;;-1.99;100.00;102194.57;1597535;89;21079;-83
2021/11/15 01:58:16;;;;;;;123.97;39.53;;;;;;;-2.04;100.00;102203.39;1599351;88;21101;-83
2021/11/15 02:00:56;;;;;;;111.42;35.68;;;;;;;-2.07;100.00;102214.23;1598463;88;20986;-84
2021/11/15 02:03:26;;;;;;;118.37;34.95;;;;;;;-2.08;100.00;102203.33;1599267;89;21056;-83
2021/11/15 02:05:53;;;;;;;99.87;34.13;;;;;;;-2.11;100.00;102189.91;1598986;88;21550;-83
2021/11/15 02:08:20;;;;;;;89.00;30.12;;;;;;;-2.13;100.00;102191.84;1599177;88;21569;-83
2021/11/15 02:10:47;;;;;;;78.62;25.97;;;;;;;-2.16;100.00;102188.64;1598547;88;21109;-83
2021/11/15 02:13:15;;;;;;;69.32;23.75;;;;;;;-2.16;100.00;102184.19;1597814;89;21093;-83
2021/11/15 02:15:41;;;;;;;73.30;24.32;;;;;;;-2.14;100.00;102192.82;1588592;89;22385;-83
2021/11/15 02:18:08;;;;;;;75.45;24.50;;;;;;;-2.12;100.00;102188.70;1582813;90;21055;-83
2021/11/15 02:20:59;;;;;;;69.50;23.65;;;;;;;-2.15;100.00;102181.06;1591552;89;21175;-83
2021/11/15 02:23:30;;;;;;;70.00;22.87;;;;;;;-2.16;100.00;102177.59;1599257;88;22017;-82
2021/11/15 02:25:59;;;;;;;67.97;22.07;;;;;;;-2.17;100.00;102185.66;1599171;88;21017;-83
2021/11/15 02:28:30;;;;;;;67.85;24.50;;;;;;;-2.20;100.00;102186.77;1599447;89;21190;-83
2021/11/15 02:30:57;;;;;;;61.37;21.50;;;;;;;-2.21;100.00;102188.20;1599410;88;21006;-82
2021/11/15 02:33:23;;;;;;;67.03;22.22;;;;;;;-2.24;100.00;102182.71;1599411;89;21088;-82
2021/11/15 02:35:49;;;;;;;56.45;19.40;;;;;;;-2.29;100.00;102184.45;1599149;88;21982;-82
2021/11/15 02:38:15;;;;;;;59.03;21.30;;;;;;;-2.31;100.00;102182.92;1599284;88;21126;-82
2021/11/15 02:40:42;;;;;;;54.42;19.77;;;;;;;-2.38;100.00;102186.59;1599215;88;21049;-83
2021/11/15 02:43:08;;;;;;;63.80;20.85;;;;;;;-2.39;100.00;102186.22;1599362;89;21037;-83
2021/11/15 02:45:35;;;;;;;64.50;21.93;;;;;;;-2.40;100.00;102183.24;1599330;88;21500;-82
2021/11/15 02:48:01;;;;;;;61.33;20.65;;;;;;;-2.47;100.00;102186.55;1599142;88;21177;-82
2021/11/15 02:50:29;;;;;;;55.33;20.10;;;;;;;-2.52;100.00;102190.92;1599343;88;21097;-82
2021/11/15 02:53:00;;;;;;;55.05;19.82;;;;;;;-2.53;100.00;102201.97;1595536;89;21022;-82
2021/11/15 02:55:28;;;;;;;50.78;18.57;;;;;;;-2.51;100.00;102200.50;1596995;88;21076;-82
2021/11/15 02:57:57;;;;;;;52.45;18.30;;;;;;;-2.59;100.00;102191.09;1599949;88;21135;-82
2021/11/15 03:00:31;;;;;;;60.65;19.07;;;;;;;-2.69;100.00;102193.70;1598619;89;21933;-82
2021/11/15 03:02:58;;;;;;;54.60;19.10;;;;;;;-2.71;100.00;102189.53;1558388;91;21036;-82
2021/11/15 03:05:31;;;;;;;56.18;19.35;;;;;;;-2.73;100.00;102187.04;1569578;91;21739;-82
2021/11/15 03:08:00;;;;;;;51.68;18.48;;;;;;;-2.74;100.00;102199.86;1595519;89;21519;-82
2021/11/15 03:10:27;;;;;;;53.28;18.10;;;;;;;-2.77;100.00;102204.91;1595632;89;20987;-82
2021/11/15 03:12:54;;;;;;;54.93;18.17;;;;;;;-2.79;100.00;102192.85;1598843;88;21918;-82
2021/11/15 03:15:28;;;;;;;50.85;17.02;;;;;;;-2.85;100.00;102198.66;1598587;88;20981;-82
2021/11/15 03:18:04;;;;;;;58.33;18.95;;;;;;;-2.87;100.00;102205.37;1599101;88;21040;-82
2021/11/15 03:20:35;;;;;;;51.08;18.70;;;;;;;-2.91;100.00;102214.98;1600683;89;21602;-82
2021/11/15 03:23:08;;;;;;;53.95;19.42;;;;;;;-2.91;100.00;102205.75;1600477;88;21078;-82
2021/11/15 03:25:35;;;;;;;52.75;18.35;;;;;;;-2.92;100.00;102212.00;1600921;89;22030;-82
2021/11/15 03:28:01;;;;;;;50.12;19.00;;;;;;;-2.91;100.00;102207.06;1600738;87;21645;-82
2021/11/15 03:30:28;;;;;;;45.00;17.00;;;;;;;-3.02;100.00;102201.41;1579656;89;21118;-81
2021/11/15 03:32:55;;;;;;;53.65;20.82;;;;;;;-3.10;100.00;102202.54;1600614;87;21081;-82
2021/11/15 03:35:22;;;;;;;50.98;18.07;;;;;;;-3.15;100.00;102204.23;1600392;87;21573;-82
2021/11/15 03:37:50;;;;;;;76.15;28.83;;;;;;;-3.14;100.00;102202.45;1597236;87;39410;-82
2021/11/15 03:40:23;;;;;;;57.08;21.73;;;;;;;-3.16;100.00;102199.11;1600009;87;21086;-82
2021/11/15 03:42:51;;;;;;;58.02;21.60;;;;;;;-3.23;100.00;102195.67;1585174;90;21112;-82
2021/11/15 03:45:17;;;;;;;53.83;20.80;;;;;;;-3.23;100.00;102210.66;1585178;89;21098;-81
2021/11/15 03:47:44;;;;;;;58.55;20.95;;;;;;;-3.23;100.00;102207.54;1585246;90;21590;-82
2021/11/15 03:50:10;;;;;;;57.00;20.92;;;;;;;-3.27;100.00;102213.18;1585594;89;21074;-82
2021/11/15 03:52:38;;;;;;;55.40;20.48;;;;;;;-3.24;100.00;102216.87;1588392;89;20995;-82
2021/11/15 03:55:07;;;;;;;67.12;21.35;;;;;;;-3.24;100.00;102216.39;1584966;90;21046;-82
2021/11/15 03:57:34;;;;;;;64.82;21.48;;;;;;;-3.25;100.00;102222.64;1585346;90;21115;-82
2021/11/15 04:00:00;;;;;;;68.75;20.92;;;;;;;-3.33;100.00;102222.44;1585729;90;21586;-82
2021/11/15 04:02:30;;;;;;;71.45;23.00;;;;;;;-3.35;100.00;102220.44;1585307;90;21149;-82
2021/11/15 04:05:03;;;;;;;65.00;23.38;;;;;;;-3.41;100.00;102220.95;1581709;90;21062;-82
2021/11/15 04:07:30;;;;;;;71.55;23.70;;;;;;;-3.41;100.00;102223.58;1581777;90;21007;-82
2021/11/15 04:09:58;;;;;;;67.67;22.17;;;;;;;-3.47;100.00;102226.70;1584829;89;21121;-82
2021/11/15 04:12:27;;;;;;;64.82;22.75;;;;;;;-3.48;100.00;102228.50;1585038;90;21074;-82
2021/11/15 04:14:54;;;;;;;68.87;22.42;;;;;;;-3.46;100.00;102226.59;1585050;90;21295;-82
2021/11/15 04:17:22;;;;;;;72.35;22.80;;;;;;;-3.43;100.00;102228.14;1576907;90;21051;-82
2021/11/15 04:19:52;;;;;;;72.58;23.35;;;;;;;-3.43;100.00;102225.50;1622137;88;20996;-82
2021/11/15 04:22:19;;;;;;;78.52;23.83;;;;;;;-3.45;100.00;102237.95;1620091;88;21487;-82
2021/11/15 04:24:46;;;;;;;85.35;26.40;;;;;;;-3.44;100.00;102243.12;1621800;87;20991;-82
2021/11/15 04:27:12;;;;;;;75.72;23.80;;;;;;;-3.44;100.00;102240.48;1622136;88;21111;-82
2021/11/15 04:29:38;;;;;;;82.08;25.45;;;;;;;-3.45;100.00;102248.50;1621868;88;21051;-82
2021/11/15 04:32:06;;;;;;;67.15;24.10;;;;;;;-3.46;100.00;102246.35;1621937;88;20981;-82
2021/11/15 04:34:33;;;;;;;67.53;22.13;;;;;;;-3.49;100.00;102245.29;1621918;88;21049;-82
2021/11/15 04:37:00;;;;;;;72.40;21.52;;;;;;;-3.55;100.00;102241.84;1622023;88;21071;-82
2021/11/15 04:39:26;;;;;;;83.60;25.90;;;;;;;-3.52;100.00;102247.34;1621868;88;21968;-83
2021/11/15 04:41:52;;;;;;;88.75;28.05;;;;;;;-3.56;100.00;102245.91;1640404;85;21015;-82
2021/11/15 04:44:18;;;;;;;88.87;27.32;;;;;;;-3.62;100.00;102252.52;1622274;87;20995;-82
2021/11/15 04:46:44;;;;;;;91.35;27.58;;;;;;;-3.64;100.00;102255.78;1622191;88;21517;-82
2021/11/15 04:49:10;;;;;;;87.53;27.98;;;;;;;-3.68;100.00;102249.06;1622234;88;21004;-82
2021/11/15 04:51:36;;;;;;;84.95;25.45;;;;;;;-3.70;100.00;102253.64;1622107;88;21096;-82
2021/11/15 04:54:03;;;;;;;84.17;27.93;;;;;;;-3.67;100.00;102254.23;1622226;88;21717;-82
2021/11/15 04:56:29;;;;;;;75.08;25.15;;;;;;;-3.64;100.00;102255.78;1601320;88;21005;-82
2021/11/15 04:58:56;;;;;;;76.60;24.85;;;;;;;-3.68;100.00;102268.37;1622277;88;21515;-82
2021/11/15 05:01:22;;;;;;;80.35;26.05;;;;;;;-3.63;100.00;102277.68;1622154;88;21124;-82
2021/11/15 05:03:48;;;;;;;70.28;22.70;;;;;;;-3.53;100.00;102268.05;1622154;88;21165;-82
2021/11/15 05:06:14;;;;;;;62.60;22.00;;;;;;;-3.46;100.00;102277.14;1622112;88;21736;-82
2021/11/15 05:08:40;;;;;;;69.82;23.18;;;;;;;-3.35;100.00;102267.02;1622041;88;21520;-82
2021/11/15 05:11:06;;;;;;;60.08;22.80;;;;;;;-3.28;100.00;102284.02;1622247;88;20973;-82
2021/11/15 05:13:32;;;;;;;64.85;21.33;;;;;;;-3.23;100.00;102277.39;1622181;88;20917;-82
2021/11/15 05:15:58;;;;;;;63.50;21.52;;;;;;;-3.17;100.00;102279.17;1622134;88;21957;-82
2021/11/15 05:18:24;;;;;;;64.10;20.88;;;;;;;-3.09;100.00;102285.48;1622093;88;21048;-82
2021/11/15 05:20:50;;;;;;;60.75;19.87;;;;;;;-3.02;100.00;102286.63;1622052;88;20928;-83
2021/11/15 05:23:16;;;;;;;62.20;19.23;;;;;;;-2.90;100.00;102293.98;1622252;88;21040;-83
2021/11/15 05:25:43;;;;;;;51.53;18.92;;;;;;;-2.79;100.00;102282.54;1601382;88;20973;-83
2021/11/15 05:28:10;;;;;;;55.95;19.62;;;;;;;-2.66;100.00;102289.75;1622258;88;21132;-82
2021/11/15 05:30:36;;;;;;;66.47;19.45;;;;;;;-2.45;100.00;102287.55;1622235;88;21059;-83
2021/11/15 05:33:02;;;;;;;58.48;19.07;;;;;;;-2.20;100.00;102291.56;1622171;88;20917;-83
2021/11/15 05:35:28;;;;;;;62.85;20.37;;;;;;;-1.93;100.00;102276.41;1621893;88;21028;-83
2021/11/15 05:37:56;;;;;;;55.48;18.92;;;;;;;-1.74;100.00;102288.31;1604881;89;21105;-83
2021/11/15 05:40:25;;;;;;;52.85;19.15;;;;;;;-1.49;100.00;102279.02;1658177;86;21105;-83
2021/11/15 05:42:53;;;;;;;70.92;22.48;;;;;;;-1.11;100.00;102289.24;1658129;85;21073;-83
2021/11/15 05:45:21;;;;;;;64.50;21.27;;;;;;;-0.54;100.00;102283.95;1658227;86;21027;-83
2021/11/15 05:47:47;;;;;;;75.97;25.32;;;;;;;-0.08;100.00;102294.98;1658564;86;21086;-83
2021/11/15 05:50:16;;;;;;;71.15;23.73;;;;;;;0.62;100.00;102295.22;1658287;85;20959;-84
2021/11/15 05:52:43;;;;;;;63.87;22.22;;;;;;;1.48;100.00;102304.31;1658534;86;21169;-84
2021/11/15 05:55:13;;;;;;;69.60;24.15;;;;;;;2.09;100.00;102295.28;1658188;86;21023;-84
2021/11/15 05:57:40;;;;;;;73.07;27.37;;;;;;;2.93;100.00;102304.86;1658409;86;21038;-84
2021/11/15 06:00:13;;;;;;;88.95;32.93;;;;;;;3.68;100.00;102302.41;1658336;86;21022;-84
2021/11/15 06:02:40;;;;;;;95.03;33.60;;;;;;;4.39;100.00;102301.08;1655956;86;21063;-84
2021/11/15 06:05:07;;;;;;;83.85;30.88;;;;;;;5.06;100.00;102308.39;1622251;87;21172;-84
2021/11/15 06:07:34;;;;;;;72.17;27.98;;;;;;;5.10;100.00;102309.71;1601334;88;20977;-84
2021/11/15 06:10:00;;;;;;;70.83;27.17;;;;;;;5.60;100.00;102318.90;1622154;88;21552;-84
2021/11/15 06:12:26;;;;;;;75.65;29.35;;;;;;;5.98;100.00;102313.47;1622195;88;20920;-84
2021/11/15 06:14:52;;;;;;;73.30;31.05;;;;;;;6.73;100.00;102309.03;1621991;88;21047;-84
2021/11/15 06:17:18;;;;;;;74.27;29.55;;;;;;;7.15;100.00;102314.05;1621906;88;21082;-84
2021/11/15 06:19:44;;;;;;;69.12;29.52;;;;;;;7.59;100.00;102313.40;1621931;88;21028;-85
2021/11/15 06:22:10;;;;;;;70.47;30.43;;;;;;;8.33;100.00;102310.03;1622010;88;21574;-84
2021/11/15 06:24:40;;;;;;;64.72;26.85;;;;;;;8.97;100.00;102314.92;1622072;88;20881;-85
2021/11/15 06:27:06;;;;;;;65.00;26.37;;;;;;;9.48;100.00;102310.22;1601056;89;21114;-84
2021/11/15 06:29:31;;;;;;;59.55;24.95;;;;;;;9.77;100.00;102313.47;1621565;88;21068;-83
2021/11/15 06:31:57;;;;;;;55.98;23.90;;;;;;;9.85;100.00;102315.90;1621646;88;20933;-84
2021/11/15 06:34:23;;;;;;;55.98;23.83;;;;;;;9.93;100.00;102317.55;1621651;88;20886;-84
2021/11/15 06:36:49;;;;;;;49.35;20.97;;;;;;;10.05;100.00;102319.88;1621668;88;20917;-84
2021/11/15 06:39:15;;;;;;;56.08;21.95;;;;;;;9.46;100.00;102320.88;1621695;88;21078;-84
2021/11/15 06:41:42;;;;;;;49.00;20.43;;;;;;;9.10;100.00;102325.67;1621409;86;20985;-84
2021/11/15 06:44:09;;;;;;;52.25;22.25;;;;;;;8.28;98.63;102317.34;1617369;88;21511;-84
2021/11/15 06:46:35;;;;;;;48.58;21.52;;;;;;;7.25;100.00;102325.25;1621209;88;21092;-86
2021/11/15 06:49:01;;;;;;;58.48;23.50;;;;;;;6.78;100.00;102325.89;1638283;86;20914;-85
2021/11/15 06:51:28;;;;;;;66.33;23.05;;;;;;;6.53;100.00;102332.11;1638768;86;21125;-85
2021/11/15 06:53:54;;;;;;;58.63;22.20;;;;;;;6.32;100.00;102333.77;1653545;86;21952;-86
2021/11/15 06:56:21;;;;;;;49.23;20.40;;;;;;;6.24;100.00;102343.24;1653729;86;21099;-85
2021/11/15 06:58:47;;;;;;;47.03;19.50;;;;;;;6.22;100.00;102341.25;1653502;86;21023;-85
2021/11/15 07:01:13;;;;;;;49.40;19.60;;;;;;;5.80;100.00;102344.59;1654176;86;21648;-85
2021/11/15 07:03:39;;;;;;;44.88;16.97;;;;;;;5.46;100.00;102346.77;1621908;88;21095;-85
2021/11/15 07:06:05;;;;;;;46.58;18.30;;;;;;;5.17;100.00;102348.87;1622059;88;21209;-85
2021/11/15 07:08:31;;;;;;;55.67;20.08;;;;;;;4.57;100.00;102352.85;1621906;88;20952;-84
2021/11/15 07:10:57;;;;;;;48.33;18.77;;;;;;;4.26;100.00;102354.50;1603341;89;21025;-85
2021/11/15 07:13:23;;;;;;;46.10;18.82;;;;;;;3.99;100.00;102353.62;1621938;88;21012;-85
2021/11/15 07:15:49;;;;;;;52.25;20.08;;;;;;;3.85;100.00;102356.50;1621922;88;21039;-85
2021/11/15 07:18:17;;;;;;;51.20;19.73;;;;;;;3.74;100.00;102359.05;1603589;88;21029;-85
2021/11/15 07:20:43;;;;;;;40.35;15.43;;;;;;;3.64;100.00;102373.88;1621893;88;21043;-85
2021/11/15 07:23:10;;;;;;;44.93;16.95;;;;;;;3.64;100.00;102367.22;1621923;88;21008;-85
2021/11/15 07:25:36;;;;;;;42.20;15.30;;;;;;;3.72;100.00;102369.05;1622088;88;21075;-85
2021/11/15 07:28:02;;;;;;;36.30;14.65;;;;;;;3.66;100.00;102371.06;1621810;88;21476;-85
2021/11/15 07:30:28;;;;;;;37.83;14.30;;;;;;;3.64;100.00;102376.55;1596906;88;21310;-86
2021/11/15 07:32:54;;;;;;;32.28;14.10;;;;;;;3.64;100.00;102380.55;1644173;86;20957;-86
2021/11/15 07:35:21;;;;;;;33.08;13.90;;;;;;;3.60;100.00;102378.41;1618846;87;21025;-85
2021/11/15 07:37:48;;;;;;;37.75;14.63;;;;;;;3.61;100.00;102384.05;1624713;86;21031;-86
2021/11/15 07:40:17;;;;;;;40.60;14.58;;;;;;;3.70;100.00;102389.70;1589922;89;21082;-86
2021/11/15 07:42:44;;;;;;;38.78;14.93;;;;;;;3.92;100.00;102385.50;1600078;87;21347;-85
2021/11/15 07:45:11;;;;;;;32.60;13.93;;;;;;;4.19;100.00;102378.89;1612690;88;21078;-86
2021/11/15 07:47:39;;;;;;;34.73;13.60;;;;;;;4.80;100.00;102384.92;1591671;89;21074;-87
2021/11/15 07:50:07;;;;;;;29.77;12.68;;;;;;;5.27;100.00;102384.73;1631344;86;20984;-86
2021/11/15 07:52:36;;;;;;;27.65;12.03;;;;;;;6.23;100.00;102385.73;1651807;86;21603;-86
2021/11/15 07:55:04;;;;;;;30.75;12.43;;;;;;;6.47;100.00;102387.28;1651335;86;21445;-86
2021/11/15 07:57:30;;;;;;;31.82;12.88;;;;;;;6.40;100.00;102384.20;1647654;86;21491;-86
2021/11/15 08:00:06;;;;;;;;;;;;;;;;;;;;;
2021/11/15 08:02:24;;;;;;;29.98;12.20;;;;;;;6.79;100.00;102376.62;1612154;88;21104;-86
2021/11/15 08:04:50;;;;;;;25.95;12.03;;;;;;;7.27;100.00;102381.39;1612385;88;21052;-86
2021/11/15 08:07:16;;;;;;;30.88;12.63;;;;;;;8.82;100.00;102382.33;1612491;89;21179;-85
2021/11/15 08:09:43;;;;;;;29.35;11.85;;;;;;;11.53;100.00;102373.98;1612220;89;21041;-86
2021/11/15 08:12:11;;;;;;;24.20;11.75;;;;;;;11.53;100.00;102373.98;1612357;88;21529;-86
2021/11/15 08:14:40;;;;;;;22.62;11.00;;;;;;;13.12;100.00;102376.60;1612139;88;21076;-86
2021/11/15 08:17:08;;;;;;;21.70;11.08;;;;;;;13.04;100.00;102382.34;1619048;87;20956;-87
2021/11/15 08:19:35;;;;;;;29.00;12.07;;;;;;;13.01;92.16;102382.81;1596307;87;21156;-87
2021/11/15 08:22:01;;;;;;;24.10;10.72;;;;;;;12.62;88.06;102374.23;1616554;88;21064;-87
2021/11/15 08:24:57;;;;;;;24.70;11.68;;;;;;;11.92;88.54;102378.73;1615907;88;21103;-87
2021/11/15 08:27:22;;;;;;;23.70;10.88;;;;;;;10.96;92.87;102383.48;1611474;89;21137;-87
2021/11/15 08:29:48;;;;;;;24.32;11.73;;;;;;;10.15;97.43;102389.48;1611815;89;21584;-87
2021/11/15 08:32:16;;;;;;;32.25;11.88;;;;;;;9.35;100.00;102392.28;1611738;89;21901;-87
2021/11/15 08:34:43;;;;;;;30.40;11.75;;;;;;;8.63;100.00;102400.05;1678992;84;21024;-87
2021/11/15 08:37:11;;;;;;;30.70;11.83;;;;;;;8.22;100.00;102401.92;1681157;85;21051;-87
2021/11/15 08:39:37;;;;;;;29.05;11.70;;;;;;;7.62;100.00;102404.26;1660806;84;21098;-86
2021/11/15 08:42:06;;;;;;;31.68;11.97;;;;;;;7.15;100.00;102405.73;1653029;85;21585;-85
2021/11/15 08:44:34;;;;;;;32.75;12.88;;;;;;;6.91;100.00;102402.41;1650501;86;22087;-86
2021/11/15 08:47:00;;;;;;;28.87;11.83;;;;;;;6.71;100.00;102402.70;1650182;87;21070;-86
2021/11/15 08:49:30;;;;;;;28.85;12.58;;;;;;;6.57;100.00;102401.71;1650459;86;21558;-86
2021/11/15 08:51:58;;;;;;;27.58;12.23;;;;;;;6.36;100.00;102406.00;1650755;86;21014;-86
2021/11/15 08:54:24;;;;;;;29.87;11.20;;;;;;;6.30;100.00;102408.08;1650427;86;21099;-86
2021/11/15 08:56:58;;;;;;;25.10;9.98;;;;;;;6.25;100.00;102402.45;1650634;87;21139;-86
2021/11/15 08:59:24;;;;;;;32.13;11.05;;;;;;;6.18;100.00;102401.55;1638862;87;21084;-87
2021/11/15 09:01:51;;;;;;;35.25;11.45;;;;;;;6.14;100.00;102398.89;1638702;87;21187;-86
2021/11/15 09:04:17;;;;;;;31.62;11.22;;;;;;;6.13;100.00;102390.55;1638845;86;21029;-86
2021/11/15 09:06:44;;;;;;;25.82;10.08;;;;;;;6.11;100.00;102385.38;1639017;86;21112;-87
2021/11/15 09:09:15;;;;;;;28.25;11.25;;;;;;;6.14;100.00;102390.35;1638881;87;21924;-86
2021/11/15 09:11:52;;;;;;;27.00;10.72;;;;;;;6.22;100.00;102396.13;1638760;86;21029;-87
2021/11/15 09:14:26;;;;;;;26.15;11.38;;;;;;;6.23;100.00;102397.78;1581141;90;21271;-86
2021/11/15 09:16:56;;;;;;;31.80;10.63;;;;;;;6.26;100.00;102401.94;1514524;94;21568;-87
2021/11/15 09:19:24;;;;;;;29.63;11.38;;;;;;;6.25;100.00;102394.93;1461975;97;21078;-88
2021/11/15 09:22:10;;;;;;;26.65;10.63;;;;;;;6.28;100.00;102394.05;1434772;100;21258;-86
2021/11/15 09:27:59;;;;;;;;;;;;;;;6.28;100.00;102389.20;1362755;105;21206;-87
2021/11/15 09:30:06;;;;;;;;;;;;;;;;;;;;;
2021/11/15 09:32:31;;;;;;;34.45;11.63;;;;;;;6.25;100.00;102393.59;1376826;103;21717;-88
2021/11/15 09:35:04;;;;;;;28.70;11.73;;;;;;;6.19;100.00;102391.15;1361494;104;21188;-88
2021/11/15 10:17:44;;;;;;;32.67;12.20;;;;;;;6.02;100.00;102394.52;1290036;111;21665;-87
2021/11/15 10:20:12;;;;;;;29.15;11.03;;;;;;;5.97;100.00;102392.92;1269898;111;21117;-86
2021/11/15 10:22:40;;;;;;;35.00;11.55;;;;;;;6.01;100.00;102386.69;1285552;111;21213;-86
2021/11/15 10:25:09;;;;;;;30.88;11.68;;;;;;;6.09;100.00;102383.92;1327396;105;21161;-87
2021/11/15 10:27:36;;;;;;;36.30;12.78;;;;;;;6.14;100.00;102385.52;1336913;105;21570;-88
2021/11/15 10:30:12;;;;;;;28.12;10.75;;;;;;;6.16;100.00;102388.84;1364075;104;21452;-87
2021/11/15 10:32:44;;;;;;;24.20;10.23;;;;;;;6.14;100.00;102386.85;1379236;103;21038;-87
2021/11/15 10:35:10;;;;;;;24.35;9.33;;;;;;;6.18;100.00;102382.80;1380767;103;21129;-87
2021/11/15 10:37:38;;;;;;;28.80;10.70;;;;;;;6.23;100.00;102384.91;1383342;102;21186;-87
2021/11/15 10:40:13;;;;;;;28.60;10.80;;;;;;;6.29;100.00;102383.64;1400384;100;21138;-87
2021/11/15 10:42:45;;;;;;;26.65;10.55;;;;;;;6.33;100.00;102378.25;1432875;92;21854;-87
2021/11/15 10:45:18;;;;;;;30.88;11.30;;;;;;;6.35;100.00;102384.27;1492576;94;21186;-87
2021/11/15 10:47:54;;;;;;;28.62;10.78;;;;;;;6.42;100.00;102383.52;1508379;92;21567;-87
2021/11/15 10:50:31;;;;;;;36.23;13.08;;;;;;;6.50;100.00;102382.03;1511549;93;21095;-88
2021/11/15 10:53:10;;;;;;;32.33;12.28;;;;;;;6.51;100.00;102388.56;1528794;93;21162;-87
2021/11/15 10:55:41;;;;;;;36.80;13.38;;;;;;;6.55;100.00;102389.01;1528724;93;21607;-87
2021/11/15 10:58:23;;;;;;;34.73;13.35;;;;;;;6.55;100.00;102390.34;1528992;92;21111;-87
2021/11/15 11:03:27;;;;;;;28.27;10.35;;;;;;;6.62;100.00;102397.97;1469220;96;21100;-88
2021/11/15 11:06:00;;;;;;;30.08;11.50;;;;;;;6.64;100.00;102392.41;1468919;97;21091;-88
2021/11/15 11:11:14;;;;;;;29.27;11.97;;;;;;;6.66;100.00;102397.89;1408553;101;21639;-88
2021/11/15 11:14:01;;;;;;;33.05;12.80;;;;;;;6.71;100.00;102394.66;1407875;101;21088;-88
2021/11/15 11:16:53;;;;;;;36.73;11.88;;;;;;;6.78;100.00;102400.39;1398043;101;21126;-87
2021/11/15 11:19:32;;;;;;;24.87;11.05;;;;;;;6.81;100.00;102409.91;1399939;102;21249;-88
2021/11/15 11:24:46;;;;;;;43.83;12.98;;;;;;;6.86;100.00;102422.75;1426977;99;21130;-88
2021/11/15 11:29:47;;;;;;;42.10;12.50;;;;;;;6.90;100.00;102438.75;1400514;101;21215;-88
2021/11/15 11:32:18;;;;;;;23.27;10.48;;;;;;;6.90;100.00;102430.72;1337979;107;21128;-88
2021/11/15 11:34:45;;;;;;;32.03;11.70;;;;;;;6.88;100.00;102425.53;1325430;106;21349;-88
2021/11/15 11:37:14;;;;;;;25.08;10.30;;;;;;;6.87;100.00;102419.86;1325436;107;21260;-88
2021/11/15 11:39:45;;;;;;;30.25;12.10;;;;;;;6.89;100.00;102429.06;1325379;106;21208;-88
2021/11/15 11:42:14;;;;;;;27.82;11.50;;;;;;;6.91;100.00;102432.36;1325314;106;21858;-88
2021/11/15 11:44:42;;;;;;;38.78;11.73;;;;;;;6.91;100.00;102428.34;1351797;104;21659;-88
2021/11/15 11:47:11;;;;;;;25.32;10.45;;;;;;;6.87;100.00;102434.60;1332020;106;21390;-88
2021/11/15 11:49:41;;;;;;;23.45;10.68;;;;;;;6.85;100.00;102435.81;1340138;106;21193;-89
2021/11/15 11:52:12;;;;;;;24.18;10.43;;;;;;;6.85;100.00;102439.83;1340651;104;21281;-88
2021/11/15 11:54:43;;;;;;;25.97;10.88;;;;;;;6.83;100.00;102440.03;1340845;106;21212;-88
2021/11/15 11:57:30;;;;;;;25.17;11.48;;;;;;;6.86;100.00;102436.14;1325576;108;21213;-89
2021/11/15 12:00:16;;;;;;;23.65;10.43;;;;;;;6.86;100.00;102445.02;1348263;103;21284;-88
2021/11/15 12:02:45;;;;;;;24.67;10.32;;;;;;;6.82;100.00;102448.59;1386684;103;21670;-88
2021/11/15 12:05:18;;;;;;;23.83;10.50;;;;;;;6.80;100.00;102451.95;1371590;103;21227;-86